createdAt,value
2023-03-07T00:01:29.612Z,3.80
2023-03-07T00:03:58.148Z,3.90
2023-03-07T00:06:27.146Z,3.90
2023-03-07T00:08:59.246Z,3.90
2023-03-07T00:11:29.007Z,3.90
2023-03-07T00:13:57.852Z,3.90
2023-03-07T00:16:28.893Z,3.90
2023-03-07T00:18:58.998Z,3.90
2023-03-07T00:21:31.466Z,3.90
2023-03-07T00:24:00.051Z,3.90
2023-03-07T00:26:29.659Z,4.00
2023-03-07T00:28:58.342Z,4.00
2023-03-07T00:31:28.306Z,4.00
2023-03-07T00:33:56.924Z,4.00
2023-03-07T00:36:25.788Z,4.00
2023-03-07T00:38:54.428Z,4.10
2023-03-07T00:41:25.401Z,4.10
2023-03-07T00:43:55.179Z,4.10
2023-03-07T00:46:25.671Z,4.10
2023-03-07T00:48:55.973Z,4.20
2023-03-07T00:51:25.635Z,4.20
2023-03-07T00:53:54.714Z,4.10
2023-03-07T00:56:25.004Z,4.20
2023-03-07T00:58:54.356Z,4.20
2023-03-07T01:01:24.965Z,4.20
2023-03-07T01:03:56.105Z,4.20
2023-03-07T01:06:26.914Z,4.20
2023-03-07T01:08:57.394Z,4.20
2023-03-07T01:11:26.328Z,4.20
2023-03-07T01:13:56.952Z,4.20
2023-03-07T01:16:27.373Z,4.20
2023-03-07T01:19:00.114Z,4.20
2023-03-07T01:21:31.285Z,4.20
2023-03-07T01:24:00.327Z,4.20
2023-03-07T01:26:31.124Z,4.20
2023-03-07T01:29:01.617Z,4.20
2023-03-07T01:31:32.621Z,4.20
2023-03-07T01:34:03.514Z,4.20
2023-03-07T01:36:33.785Z,4.20
2023-03-07T01:39:06.810Z,4.20
2023-03-07T01:41:36.021Z,4.20
2023-03-07T01:44:07.536Z,4.20
2023-03-07T01:46:53.225Z,4.20
2023-03-07T01:49:28.312Z,4.20
2023-03-07T01:52:01.392Z,4.20
2023-03-07T01:54:31.494Z,4.20
2023-03-07T01:57:03.632Z,4.20
2023-03-07T01:59:35.470Z,4.20
2023-03-07T02:02:14.659Z,4.20
2023-03-07T02:04:49.780Z,4.20
2023-03-07T02:07:19.239Z,4.10
2023-03-07T02:09:49.159Z,4.20
2023-03-07T02:12:17.784Z,4.20
2023-03-07T02:14:48.558Z,4.20
2023-03-07T02:17:17.776Z,4.10
2023-03-07T02:19:59.390Z,4.20
2023-03-07T02:22:28.732Z,4.20
2023-03-07T02:25:02.465Z,4.10
2023-03-07T02:27:34.434Z,4.20
2023-03-07T02:30:04.149Z,4.20
2023-03-07T02:32:33.418Z,4.20
2023-03-07T02:35:01.988Z,4.20
2023-03-07T02:37:33.980Z,4.20
2023-03-07T02:40:07.038Z,4.20
2023-03-07T02:42:41.661Z,4.20
2023-03-07T02:45:13.446Z,4.20
2023-03-07T02:47:43.464Z,4.20
2023-03-07T02:50:13.972Z,4.20
2023-03-07T02:52:43.348Z,4.20
2023-03-07T02:55:13.217Z,4.20
2023-03-07T02:57:43.191Z,4.10
2023-03-07T03:00:13.429Z,4.10
2023-03-07T03:02:42.035Z,4.10
2023-03-07T03:05:10.927Z,4.10
2023-03-07T03:07:39.544Z,4.10
2023-03-07T03:10:09.348Z,4.10
2023-03-07T03:12:37.861Z,4.10
2023-03-07T03:15:09.321Z,4.10
2023-03-07T03:17:37.995Z,4.10
2023-03-07T03:20:11.747Z,4.10
2023-03-07T03:22:41.131Z,4.10
2023-03-07T03:25:11.842Z,4.10
2023-03-07T03:27:41.723Z,4.10
2023-03-07T03:30:14.120Z,4.10
2023-03-07T03:32:43.867Z,4.10
2023-03-07T03:35:12.787Z,4.10
2023-03-07T03:37:41.300Z,4.10
2023-03-07T03:40:14.792Z,4.10
2023-03-07T03:42:43.829Z,4.10
2023-03-07T03:45:16.353Z,4.10
2023-03-07T03:47:44.914Z,4.10
2023-03-07T03:50:13.675Z,4.10
2023-03-07T03:52:45.373Z,4.10
2023-03-07T03:55:14.139Z,4.10
2023-03-07T03:57:42.610Z,4.00
2023-03-07T04:00:16.064Z,4.00
2023-03-07T04:02:44.639Z,4.00
2023-03-07T04:05:13.665Z,4.00
2023-03-07T04:07:42.422Z,4.00
2023-03-07T04:10:12.056Z,4.00
2023-03-07T04:12:40.842Z,3.90
2023-03-07T04:15:10.803Z,3.90
2023-03-07T04:17:40.666Z,3.90
2023-03-07T04:20:20.258Z,3.90
2023-03-07T04:22:49.146Z,3.90
2023-03-07T04:25:17.925Z,3.90
2023-03-07T04:27:46.397Z,3.80
2023-03-07T04:30:15.577Z,3.80
2023-03-07T04:32:45.715Z,3.80
2023-03-07T04:35:14.518Z,3.80
2023-03-07T04:37:43.024Z,3.80
2023-03-07T04:40:13.044Z,3.70
2023-03-07T04:42:41.524Z,3.70
2023-03-07T04:45:11.232Z,3.70
2023-03-07T04:47:40.265Z,3.70
2023-03-07T04:50:11.544Z,3.60
2023-03-07T04:52:40.272Z,3.60
2023-03-07T04:55:09.564Z,3.60
2023-03-07T04:57:38.826Z,3.60
2023-03-07T05:00:10.281Z,3.60
2023-03-07T05:02:39.134Z,3.60
2023-03-07T05:05:10.047Z,3.60
2023-03-07T05:07:38.718Z,3.60
2023-03-07T05:10:08.523Z,3.60
2023-03-07T05:12:37.070Z,3.60
2023-03-07T05:15:06.607Z,3.60
2023-03-07T05:17:35.095Z,3.60
2023-03-07T05:20:04.197Z,3.60
2023-03-07T05:22:34.331Z,3.60
2023-03-07T05:25:02.917Z,3.60
2023-03-07T05:27:31.504Z,3.60
2023-03-07T05:30:00.202Z,3.50
2023-03-07T05:32:28.867Z,3.50
2023-03-07T05:34:57.499Z,3.60
2023-03-07T05:37:26.444Z,3.50
2023-03-07T05:39:56.639Z,3.60
2023-03-07T05:42:25.344Z,3.60
2023-03-07T05:44:53.849Z,3.50
2023-03-07T05:47:22.377Z,3.50
2023-03-07T05:49:51.063Z,3.50
2023-03-07T05:52:20.718Z,3.50
2023-03-07T05:54:51.357Z,3.50
2023-03-07T05:57:21.512Z,3.50
2023-03-07T05:59:50.472Z,3.50
2023-03-07T06:02:19.119Z,3.50
2023-03-07T06:04:50.563Z,3.50
2023-03-07T06:07:19.035Z,3.50
2023-03-07T06:09:48.071Z,3.50
2023-03-07T06:12:16.642Z,3.50
2023-03-07T06:14:46.543Z,3.60
2023-03-07T06:17:15.361Z,3.50
2023-03-07T06:19:43.922Z,3.50
2023-03-07T06:22:12.454Z,3.60
2023-03-07T06:24:41.516Z,3.50
2023-03-07T06:27:10.338Z,3.50
2023-03-07T06:29:39.046Z,3.50
2023-03-07T06:32:09.447Z,3.50
2023-03-07T06:34:39.447Z,3.60
2023-03-07T06:37:08.275Z,3.50
2023-03-07T06:39:36.708Z,3.60
2023-03-07T06:42:05.753Z,3.60
2023-03-07T06:44:34.275Z,3.60
2023-03-07T06:47:02.938Z,3.60
2023-03-07T06:49:32.977Z,3.70
2023-03-07T06:52:01.635Z,3.70
2023-03-07T06:54:30.524Z,3.70
2023-03-07T06:56:59.116Z,3.70
2023-03-07T06:59:27.696Z,3.70
2023-03-07T07:01:56.409Z,3.70
2023-03-07T07:04:25.241Z,3.70
2023-03-07T07:06:55.123Z,3.70
2023-03-07T07:09:23.846Z,3.70
2023-03-07T07:11:52.707Z,3.80
2023-03-07T07:14:22.142Z,3.70
2023-03-07T07:16:50.874Z,3.70
2023-03-07T07:19:19.605Z,3.70
2023-03-07T07:21:48.190Z,3.70
2023-03-07T07:24:19.033Z,3.80
2023-03-07T07:26:47.903Z,3.80
2023-03-07T07:29:17.096Z,3.80
2023-03-07T07:31:45.812Z,3.80
2023-03-07T07:34:14.922Z,3.80
2023-03-07T07:36:43.481Z,3.80
2023-03-07T07:39:13.138Z,3.80
2023-03-07T07:41:44.479Z,3.70
2023-03-07T07:44:13.383Z,3.70
2023-03-07T07:46:42.266Z,3.60
2023-03-07T07:49:10.847Z,3.60
2023-03-07T07:51:41.205Z,3.60
2023-03-07T07:54:10.346Z,3.50
2023-03-07T07:56:39.091Z,3.50
2023-03-07T07:59:09.130Z,3.50
2023-03-07T08:01:38.155Z,3.50
2023-03-07T08:04:07.374Z,3.50
2023-03-07T08:06:35.970Z,3.50
2023-03-07T08:09:05.621Z,3.50
2023-03-07T08:11:34.820Z,3.40
2023-03-07T08:14:04.079Z,3.30
2023-03-07T08:16:34.172Z,3.30
2023-03-07T08:19:03.469Z,3.30
2023-03-07T08:21:32.645Z,3.30
2023-03-07T08:24:01.225Z,3.30
2023-03-07T08:26:29.944Z,3.30
2023-03-07T08:28:59.619Z,3.30
2023-03-07T08:31:30.885Z,3.30
2023-03-07T08:34:02.728Z,3.20
2023-03-07T08:36:31.290Z,3.20
2023-03-07T08:38:59.850Z,3.10
2023-03-07T08:41:29.239Z,3.10
2023-03-07T08:43:58.504Z,3.10
2023-03-07T08:46:27.232Z,3.00
2023-03-07T08:48:55.831Z,2.90
2023-03-07T08:51:26.154Z,2.80
2023-03-07T08:53:54.715Z,2.70
2023-03-07T08:56:23.395Z,2.70
2023-03-07T08:58:55.152Z,2.60
2023-03-07T09:01:24.635Z,2.60
2023-03-07T09:03:53.757Z,2.60
2023-03-07T09:06:23.168Z,2.60
2023-03-07T09:08:53.190Z,2.60
2023-03-07T09:11:22.306Z,2.60
2023-03-07T09:13:52.797Z,2.60
2023-03-07T09:16:22.630Z,2.60
2023-03-07T09:18:52.230Z,2.60
2023-03-07T09:21:21.034Z,2.50
2023-03-07T09:23:49.858Z,2.50
2023-03-07T09:26:20.078Z,2.40
2023-03-07T09:28:49.588Z,2.40
2023-03-07T09:31:18.495Z,2.40
2023-03-07T09:33:47.319Z,2.30
2023-03-07T09:36:18.138Z,2.30
2023-03-07T09:38:47.358Z,2.20
2023-03-07T09:41:43.245Z,2.20
2023-03-07T09:44:24.449Z,2.20
2023-03-07T09:47:10.680Z,2.20
2023-03-07T09:49:45.818Z,2.20
2023-03-07T09:52:18.016Z,2.20
2023-03-07T09:54:52.306Z,2.10
2023-03-07T09:57:27.588Z,2.00
2023-03-07T10:00:01.950Z,2.00
2023-03-07T10:02:36.010Z,2.10
2023-03-07T10:05:14.215Z,2.00
2023-03-07T10:07:42.920Z,2.00
2023-03-07T10:10:19.064Z,2.00
2023-03-07T10:13:07.505Z,2.10
2023-03-07T10:15:46.751Z,2.20
2023-03-07T10:18:45.682Z,2.30
2023-03-07T10:21:26.934Z,2.40
2023-03-07T10:24:37.745Z,2.50
2023-03-07T10:27:09.015Z,2.60
2023-03-07T10:29:46.452Z,2.70
2023-03-07T10:32:22.579Z,2.70
2023-03-07T10:34:59.342Z,2.80
2023-03-07T10:37:44.139Z,2.80
2023-03-07T10:40:20.203Z,2.80
2023-03-07T10:42:49.731Z,2.80
2023-03-07T10:45:19.724Z,2.80
2023-03-07T10:47:48.921Z,2.80
2023-03-07T10:50:36.180Z,2.70
2023-03-07T10:53:06.523Z,2.70
2023-03-07T10:55:40.828Z,2.60
2023-03-07T10:58:19.908Z,2.70
2023-03-07T11:01:01.359Z,2.70
2023-03-07T11:03:49.665Z,2.70
2023-03-07T11:06:39.257Z,2.70
2023-03-07T11:09:27.733Z,2.70
2023-03-07T11:11:58.838Z,2.70
2023-03-07T11:14:29.431Z,2.70
2023-03-07T11:17:00.794Z,2.80
2023-03-07T11:19:39.403Z,2.80
2023-03-07T11:22:20.842Z,2.70
2023-03-07T11:24:54.585Z,2.70
2023-03-07T11:27:25.706Z,2.60
2023-03-07T11:30:23.310Z,2.50
2023-03-07T11:33:01.714Z,2.50
2023-03-07T11:35:47.568Z,2.50
2023-03-07T11:38:26.955Z,2.60
2023-03-07T11:41:02.156Z,2.60
2023-03-07T11:43:46.806Z,2.70
2023-03-07T11:46:23.029Z,2.70
2023-03-07T11:49:06.142Z,2.70
2023-03-07T11:51:49.303Z,2.70
2023-03-07T11:54:28.293Z,2.70
2023-03-07T11:57:05.664Z,2.80
2023-03-07T11:59:56.888Z,2.80
2023-03-07T12:02:47.763Z,2.80
2023-03-07T12:05:34.430Z,2.80
2023-03-07T12:08:35.117Z,2.90
2023-03-07T12:11:25.160Z,2.90
2023-03-07T12:14:06.541Z,2.90
2023-03-07T12:16:47.047Z,2.90
2023-03-07T12:19:32.920Z,2.90
2023-03-07T12:22:27.397Z,2.90
2023-03-07T12:25:20.793Z,2.90
2023-03-07T12:28:04.694Z,2.90
2023-03-07T12:30:50.711Z,2.90
2023-03-07T12:33:27.579Z,3.00
2023-03-07T12:36:01.250Z,3.00
2023-03-07T12:38:41.337Z,3.00
2023-03-07T12:41:22.677Z,3.00
2023-03-07T12:43:58.850Z,3.00
2023-03-07T12:46:39.019Z,3.00
2023-03-07T12:49:17.547Z,3.10
2023-03-07T12:51:50.326Z,3.10
2023-03-07T12:54:25.348Z,3.00
2023-03-07T12:57:00.424Z,3.00
2023-03-07T12:59:30.661Z,3.10
2023-03-07T13:02:04.666Z,3.10
2023-03-07T13:04:38.548Z,3.10
2023-03-07T13:07:13.452Z,3.10
2023-03-07T13:09:46.480Z,3.10
2023-03-07T13:12:37.461Z,3.10
2023-03-07T13:15:07.516Z,3.10
2023-03-07T13:18:01.206Z,3.10
2023-03-07T13:21:05.450Z,3.10
2023-03-07T13:23:35.159Z,3.10
2023-03-07T13:26:07.874Z,3.20
2023-03-07T13:28:51.582Z,3.20
2023-03-07T13:31:44.005Z,3.20
2023-03-07T13:34:49.043Z,3.10
2023-03-07T13:37:58.032Z,3.20
2023-03-07T13:40:48.959Z,3.10
2023-03-07T13:44:00.280Z,3.10
2023-03-07T13:46:48.380Z,3.10
2023-03-07T13:49:40.540Z,3.10
2023-03-07T13:52:36.991Z,3.10
2023-03-07T13:55:20.533Z,3.20
2023-03-07T13:57:50.411Z,3.30
2023-03-07T14:00:26.078Z,3.40
2023-03-07T14:02:57.641Z,3.50
2023-03-07T14:05:27.611Z,3.40
2023-03-07T14:07:56.283Z,3.40
2023-03-07T14:10:29.213Z,3.40
2023-03-07T14:13:33.840Z,3.40
2023-03-07T14:16:11.678Z,3.40
2023-03-07T14:18:54.485Z,3.40
2023-03-07T14:21:34.894Z,3.40
2023-03-07T14:24:31.502Z,3.40
2023-03-07T14:27:04.869Z,3.40
2023-03-07T14:29:33.969Z,3.40
2023-03-07T14:32:02.618Z,3.40
2023-03-07T14:34:34.867Z,3.30
2023-03-07T14:37:07.054Z,3.30
2023-03-07T14:39:48.577Z,3.40
2023-03-07T14:42:26.543Z,3.40
2023-03-07T14:45:27.671Z,3.30
2023-03-07T14:48:24.082Z,3.30
2023-03-07T14:50:54.530Z,3.30
2023-03-07T14:53:24.886Z,3.30
2023-03-07T14:55:56.396Z,3.20
2023-03-07T14:58:27.219Z,3.20
2023-03-07T15:01:03.993Z,3.20
2023-03-07T15:03:33.582Z,3.20
2023-03-07T15:06:04.891Z,3.10
2023-03-07T15:08:38.421Z,3.20
2023-03-07T15:11:14.234Z,3.20
2023-03-07T15:13:48.066Z,3.30
2023-03-07T15:16:24.289Z,3.20
2023-03-07T15:18:56.911Z,3.20
2023-03-07T15:21:39.233Z,3.20
2023-03-07T15:24:15.795Z,3.20
2023-03-07T15:26:50.566Z,3.20
2023-03-07T15:29:21.920Z,3.20
2023-03-07T15:31:53.024Z,3.30
2023-03-07T15:34:30.931Z,3.30
2023-03-07T15:37:25.625Z,3.30
2023-03-07T15:39:58.666Z,3.30
2023-03-07T15:42:28.844Z,3.30
2023-03-07T15:44:59.168Z,3.40
2023-03-07T15:47:29.693Z,3.40
2023-03-07T15:50:00.480Z,3.20
2023-03-07T15:52:33.947Z,2.80
2023-03-07T15:55:05.851Z,2.60
2023-03-07T15:57:39.444Z,2.40
2023-03-07T16:00:17.323Z,2.20
2023-03-07T16:02:48.417Z,2.10
2023-03-07T16:05:38.372Z,2.10
2023-03-07T16:08:17.046Z,2.10
2023-03-07T16:10:52.495Z,2.10
2023-03-07T16:13:23.853Z,2.00
2023-03-07T16:16:09.422Z,2.00
2023-03-07T16:18:38.696Z,2.10
2023-03-07T16:21:08.077Z,2.10
2023-03-07T16:23:38.397Z,2.20
2023-03-07T16:26:07.522Z,2.20
2023-03-07T16:28:37.025Z,2.10
2023-03-07T16:31:07.163Z,2.10
2023-03-07T16:33:37.406Z,2.00
2023-03-07T16:36:06.671Z,2.10
2023-03-07T16:38:35.355Z,2.10
2023-03-07T16:41:12.065Z,2.10
2023-03-07T16:43:40.958Z,2.00
2023-03-07T16:46:15.823Z,2.00
2023-03-07T16:48:46.286Z,2.10
2023-03-07T16:51:19.032Z,2.10
2023-03-07T16:53:50.324Z,2.10
2023-03-07T16:56:26.897Z,2.10
2023-03-07T16:58:55.667Z,2.10
2023-03-07T17:01:24.507Z,2.10
2023-03-07T17:03:56.752Z,2.10
2023-03-07T17:06:38.396Z,2.10
2023-03-07T17:09:09.697Z,2.10
2023-03-07T17:11:41.708Z,2.20
2023-03-07T17:14:12.776Z,2.20
2023-03-07T17:16:45.274Z,2.20
2023-03-07T17:19:25.164Z,2.10
2023-03-07T17:21:54.015Z,2.10
2023-03-07T17:24:23.098Z,2.10
2023-03-07T17:26:54.128Z,2.20
2023-03-07T17:29:27.544Z,2.10
2023-03-07T17:31:56.546Z,2.10
2023-03-07T17:34:29.459Z,2.10
2023-03-07T17:36:58.993Z,2.10
2023-03-07T17:39:28.647Z,2.10
2023-03-07T17:42:03.980Z,2.20
2023-03-07T17:44:33.188Z,2.20
2023-03-07T17:47:02.408Z,2.20
2023-03-07T17:49:35.609Z,2.20
2023-03-07T17:52:09.359Z,2.30
2023-03-07T17:54:39.068Z,2.30
2023-03-07T17:57:09.555Z,2.30
2023-03-07T17:59:41.404Z,2.40
2023-03-07T18:02:15.857Z,2.40
2023-03-07T18:04:46.160Z,2.40
2023-03-07T18:07:18.590Z,2.40
2023-03-07T18:09:53.638Z,2.40
2023-03-07T18:12:33.223Z,2.40
2023-03-07T18:15:02.038Z,2.40
2023-03-07T18:17:46.655Z,2.30
2023-03-07T18:20:16.675Z,2.30
2023-03-07T18:22:45.656Z,2.30
2023-03-07T18:25:19.313Z,2.30
2023-03-07T18:27:50.120Z,2.30
2023-03-07T18:30:20.414Z,2.30
2023-03-07T18:32:49.685Z,2.20
2023-03-07T18:35:18.672Z,2.20
2023-03-07T18:37:48.177Z,2.20
2023-03-07T18:40:19.727Z,2.10
2023-03-07T18:42:53.161Z,2.10
2023-03-07T18:45:21.843Z,2.10
2023-03-07T18:47:50.860Z,2.00
2023-03-07T18:50:19.990Z,2.00
2023-03-07T18:52:49.455Z,2.00
2023-03-07T18:55:19.781Z,2.10
2023-03-07T18:57:51.216Z,2.10
2023-03-07T19:00:21.645Z,2.10
2023-03-07T19:02:50.631Z,2.10
2023-03-07T19:05:20.935Z,2.10
2023-03-07T19:07:49.879Z,2.00
2023-03-07T19:10:19.466Z,2.10
2023-03-07T19:12:53.865Z,2.00
2023-03-07T19:15:26.032Z,2.10
2023-03-07T19:17:55.650Z,2.10
2023-03-07T19:20:27.683Z,2.00
2023-03-07T19:22:58.970Z,2.00
2023-03-07T19:25:27.890Z,2.00
2023-03-07T19:27:58.044Z,2.00
2023-03-07T19:30:27.924Z,2.00
2023-03-07T19:32:57.603Z,2.00
2023-03-07T19:35:28.966Z,2.00
2023-03-07T19:37:59.567Z,1.90
2023-03-07T19:40:32.076Z,1.90
2023-03-07T19:43:02.242Z,1.90
2023-03-07T19:45:31.299Z,1.80
2023-03-07T19:48:01.194Z,1.80
2023-03-07T19:50:32.135Z,1.90
2023-03-07T19:53:03.439Z,1.90
2023-03-07T19:55:32.776Z,1.80
2023-03-07T19:58:05.553Z,1.80
2023-03-07T20:00:37.489Z,1.80
2023-03-07T20:03:10.761Z,1.90
2023-03-07T20:05:45.504Z,1.80
2023-03-07T20:08:15.393Z,1.80
2023-03-07T20:10:53.872Z,1.80
2023-03-07T20:13:31.293Z,1.80
2023-03-07T20:16:03.262Z,1.80
2023-03-07T20:21:17.313Z,1.70
2023-03-07T20:23:54.368Z,1.70
2023-03-07T20:26:29.627Z,1.80
2023-03-07T20:29:00.428Z,1.80
2023-03-07T20:31:41.305Z,1.80
2023-03-07T20:34:10.632Z,1.80
2023-03-07T20:36:41.707Z,1.90
2023-03-07T20:39:18.422Z,1.90
2023-03-07T20:41:47.729Z,1.90
2023-03-07T20:44:18.837Z,1.80
2023-03-07T20:46:47.829Z,1.90
2023-03-07T20:49:17.529Z,1.80
2023-03-07T20:51:46.490Z,1.80
2023-03-07T20:54:19.572Z,1.80
2023-03-07T20:56:49.312Z,1.80
2023-03-07T20:59:22.838Z,1.70
2023-03-07T21:01:55.786Z,1.70
2023-03-07T21:04:25.708Z,1.70
2023-03-07T21:06:54.952Z,1.70
2023-03-07T21:09:25.751Z,1.60
2023-03-07T21:11:54.579Z,1.60
2023-03-07T21:14:26.446Z,1.60
2023-03-07T21:16:55.519Z,1.60
2023-03-07T21:19:24.571Z,1.60
2023-03-07T21:21:53.714Z,1.60
2023-03-07T21:24:25.519Z,1.60
2023-03-07T21:26:54.891Z,1.50
2023-03-07T21:29:27.691Z,1.50
2023-03-07T21:31:56.559Z,1.50
2023-03-07T21:34:25.335Z,1.40
2023-03-07T21:36:56.556Z,1.40
2023-03-07T21:39:32.306Z,1.40
2023-03-07T21:42:01.594Z,1.40
2023-03-07T21:44:33.155Z,1.40
2023-03-07T21:47:02.053Z,1.40
2023-03-07T21:49:31.813Z,1.40
2023-03-07T21:52:00.796Z,1.50
2023-03-07T21:54:33.359Z,1.40
2023-03-07T21:57:04.373Z,1.40
2023-03-07T21:59:36.239Z,1.40
2023-03-07T22:02:06.063Z,1.40
2023-03-07T22:04:35.132Z,1.40
2023-03-07T22:07:05.073Z,1.40
2023-03-07T22:09:33.791Z,1.40
2023-03-07T22:12:02.578Z,1.40
2023-03-07T22:14:31.459Z,1.40
2023-03-07T22:17:01.930Z,1.50
2023-03-07T22:19:30.690Z,1.50
2023-03-07T22:21:59.392Z,1.50
2023-03-07T22:24:28.100Z,1.60
2023-03-07T22:26:56.721Z,1.60
2023-03-07T22:29:25.378Z,1.60
2023-03-07T22:31:54.426Z,1.60
2023-03-07T22:34:24.560Z,1.60
2023-03-07T22:36:54.677Z,1.60
2023-03-07T22:39:23.923Z,1.60
2023-03-07T22:41:53.265Z,1.60
2023-03-07T22:44:23.514Z,1.60
2023-03-07T22:46:53.020Z,1.60
2023-03-07T22:49:21.607Z,1.60
2023-03-07T22:51:51.950Z,1.60
2023-03-07T22:54:21.292Z,1.50
2023-03-07T22:56:49.945Z,1.60
2023-03-07T22:59:19.059Z,1.60
2023-03-07T23:01:47.880Z,1.60
2023-03-07T23:04:17.164Z,1.60
2023-03-07T23:06:46.023Z,1.60
2023-03-07T23:09:16.078Z,1.60
2023-03-07T23:11:46.552Z,1.60
2023-03-07T23:14:15.165Z,1.50
2023-03-07T23:16:45.176Z,1.50
2023-03-07T23:19:13.882Z,1.40
2023-03-07T23:21:43.009Z,1.40
2023-03-07T23:24:12.659Z,1.40
2023-03-07T23:26:42.930Z,1.40
2023-03-07T23:29:11.897Z,1.40
2023-03-07T23:31:41.742Z,1.40
2023-03-07T23:34:16.386Z,1.30
2023-03-07T23:36:45.287Z,1.30
2023-03-07T23:39:15.308Z,1.30
2023-03-07T23:41:45.419Z,1.30
2023-03-07T23:44:14.044Z,1.20
2023-03-07T23:46:43.009Z,1.20
2023-03-07T23:49:12.686Z,1.20
2023-03-07T23:51:41.279Z,1.10
2023-03-07T23:54:09.902Z,1.20
2023-03-07T23:56:38.906Z,1.20
2023-03-07T23:59:08.928Z,1.20
